KSTP/STP METAR and TAF weather

Enter ICAO airport designator
Station Type Date Time Source
KSTP METAR 2018/12/10 12:53 UTC NOAA

KSTP 101253Z 23006KT 1 1/2SM BR OVC004 M08/M09 A3020 RMK AO2 SLP237 I1000 T10831094


Station Type Date Time Source
KSTP Decoded METAR 2018/12/10 12:53 UTC NOAA

DOWNTOWN HOLMAN FIELD, MN, United States (KSTP) 44-56N 093-03W 219M
Dec 10, 2018 - 07:53 AM EST / 2018.12.10 1253 UTC
Wind: from the SW (230 degrees) at 7 MPH (6 KT):0
Visibility: 1 1/2 mile(s):0
Sky conditions: overcast
Weather: mist
Temperature: 17.1 F (-8.3 C)
Windchill: 6 F (-14 C):1
Dew Point: 15.1 F (-9.4 C)
Relative Humidity: 91%
Pressure (altimeter): 30.2 in. Hg (1022 hPa)
ob: KSTP 101253Z 23006KT 1 1/2SM BR OVC004 M08/M09 A3020 RMK AO2 SLP237 I1000 T10831094
cycle: 13

Station Type Date Time Source
KSTP TAF 2018/02/05 20:57 UTC NOAA

TAF
AMD KSTP 051957Z 0520/0618 25007KT P6SM VCSH BKN020 OVC050
TEMPO 0520/0522 SCT020
FM052200 26006KT P6SM FEW020 BKN110
FM060100 31006KT P6SM FEW100
AMD NOT SKED


Example: see airport list